Time;durP1;ratioP1;P1;durP2;ratioP2;P2;SDS_P1;SDS_P2;PMS_P1;PMS_P2;Temp;Humidity;BMP_temperature;BMP_pressure;BME280_temperature;BME280_humidity;BME280_pressure;Samples;Min_cycle;Max_cycle;Signal;HPM_P1;HPM_P2
2022/05/29 00:02:08;;;;;;;2.75;2.50;;;;;;;13.93;100.00;90641.03;5070740;28;20040;-67
2022/05/29 00:04:34;;;;;;;6.05;3.25;;;;;;;13.76;100.00;90649.28;5070660;28;20036;-67
2022/05/29 00:07:00;;;;;;;3.80;2.53;;;;;;;13.68;100.00;90666.97;5070673;28;20037;-67
2022/05/29 00:09:39;;;;;;;2.42;2.22;;;;;;;13.68;100.00;90668.88;5070645;28;20039;-67
2022/05/29 00:12:07;;;;;;;4.45;2.53;;;;;;;13.74;100.00;90671.00;5070608;28;20043;-67
2022/05/29 00:14:34;;;;;;;4.65;2.70;;;;;;;13.60;100.00;90622.44;5070468;28;20036;-67
2022/05/29 00:16:59;;;;;;;3.50;2.35;;;;;;;13.61;100.00;90623.22;5070577;28;20480;-67
2022/05/29 00:19:25;;;;;;;4.00;2.45;;;;;;;13.54;100.00;90612.28;5070528;28;20508;-67
2022/05/29 00:21:51;;;;;;;4.70;2.25;;;;;;;13.61;100.00;90623.22;5070549;28;20120;-67
2022/05/29 00:24:17;;;;;;;7.47;3.05;;;;;;;13.63;100.00;90623.66;5070540;28;20039;-67
2022/05/29 00:26:42;;;;;;;6.15;2.30;;;;;;;13.60;100.00;90611.75;5070683;28;20086;-67
2022/05/29 00:29:08;;;;;;;4.65;2.70;;;;;;;13.60;100.00;90613.66;5068232;28;20048;-68
2022/05/29 00:31:35;;;;;;;3.58;2.38;;;;;;;13.59;100.00;90614.75;5070392;28;20523;-67
2022/05/29 00:34:01;;;;;;;3.50;1.90;;;;;;;13.58;100.00;90608.63;5070305;28;20490;-67
2022/05/29 00:36:31;;;;;;;2.30;1.90;;;;;;;13.70;100.00;90611.28;5070396;28;20074;-68
2022/05/29 00:38:57;;;;;;;3.55;1.98;;;;;;;13.81;100.00;90590.22;5070140;28;20119;-68
2022/05/29 00:41:32;;;;;;;1.77;1.60;;;;;;;13.80;100.00;90580.66;5070363;28;20117;-68
2022/05/29 00:44:20;;;;;;;2.33;1.67;;;;;;;13.75;100.00;90583.56;5070326;28;20546;-68
2022/05/29 00:46:49;;;;;;;2.72;2.00;;;;;;;13.76;100.00;90593.91;5070881;28;20406;-68
2022/05/29 00:49:17;;;;;;;4.63;2.00;;;;;;;13.77;100.00;90579.44;5074037;28;20032;-68
2022/05/29 00:52:07;;;;;;;2.28;1.98;;;;;;;13.94;100.00;90582.97;5074000;28;20060;-68
2022/05/29 00:54:49;;;;;;;3.80;2.38;;;;;;;13.95;100.00;90582.66;5073737;28;20087;-68
2022/05/29 00:57:17;;;;;;;4.05;1.88;;;;;;;13.90;100.00;90572.19;5073894;28;20032;-67
2022/05/29 00:59:44;;;;;;;2.35;1.70;;;;;;;13.92;100.00;90580.66;5073689;28;20048;-67
2022/05/29 01:02:10;;;;;;;3.40;2.40;;;;;;;13.82;100.00;90565.06;5073842;28;20700;-67
2022/05/29 01:04:38;;;;;;;5.43;3.10;;;;;;;13.78;100.00;90562.28;5073757;28;20024;-67
2022/05/29 01:07:10;;;;;;;6.85;2.55;;;;;;;13.83;100.00;90560.47;5073742;28;20036;-67
2022/05/29 01:09:38;;;;;;;2.73;2.20;;;;;;;13.83;100.00;90553.25;5073606;28;20115;-67
2022/05/29 01:12:31;;;;;;;2.03;1.90;;;;;;;13.94;100.00;90562.38;5073712;28;20056;-67
2022/05/29 01:15:08;;;;;;;2.22;1.80;;;;;;;14.11;100.00;90565.91;5073601;28;20085;-67
2022/05/29 01:17:42;;;;;;;3.72;2.58;;;;;;;14.18;100.00;90566.09;5073580;28;20021;-67
2022/05/29 01:20:35;;;;;;;2.17;1.98;;;;;;;14.22;100.00;90558.97;5073553;28;20082;-67
2022/05/29 01:23:19;;;;;;;4.53;2.58;;;;;;;13.94;100.00;90556.25;5073349;28;20032;-67
2022/05/29 01:26:03;;;;;;;;;;;;;;;13.64;100.00;90542.34;5073679;28;20032;-67
2022/05/29 01:28:44;;;;;;;6.07;1.85;;;;;;;13.47;100.00;90538.81;5073297;28;19914;-67
2022/05/29 01:31:28;;;;;;;3.65;1.80;;;;;;;13.42;100.00;90541.72;5073294;28;20111;-67
2022/05/29 01:34:08;;;;;;;2.97;1.75;;;;;;;13.36;100.00;90550.28;5073087;28;20111;-67
2022/05/29 01:36:59;;;;;;;2.13;1.85;;;;;;;13.38;100.00;90546.16;5073310;28;20103;-67
2022/05/29 01:39:35;;;;;;;2.05;1.40;;;;;;;13.44;100.00;90557.41;5073299;28;20032;-68
2022/05/29 01:42:09;;;;;;;3.45;1.90;;;;;;;13.45;100.00;90537.59;5073279;28;20028;-68
2022/05/29 01:44:39;;;;;;;4.35;1.75;;;;;;;13.48;100.00;90539.59;5073027;28;20032;-68
2022/05/29 01:47:16;;;;;;;2.33;1.92;;;;;;;13.57;100.00;90548.28;5072911;28;20498;-68
2022/05/29 01:49:49;;;;;;;2.45;1.50;;;;;;;13.57;100.00;90537.59;5072945;28;20533;-68
2022/05/29 01:52:20;;;;;;;1.58;1.45;;;;;;;13.67;100.00;90533.66;5072914;28;20108;-68
2022/05/29 01:55:05;;;;;;;6.18;2.17;;;;;;;13.57;100.00;90526.09;5072814;28;20028;-68
2022/05/29 01:57:37;;;;;;;1.83;1.58;;;;;;;13.59;100.00;90526.56;5072640;28;20027;-68
2022/05/29 02:00:10;;;;;;;4.93;1.75;;;;;;;13.56;100.00;90516.53;5072255;28;20089;-68
2022/05/29 02:02:38;;;;;;;3.58;1.70;;;;;;;13.57;100.00;90513.53;5072740;28;20024;-68
2022/05/29 02:05:14;;;;;;;3.45;2.28;;;;;;;13.62;100.00;90517.88;5072628;28;20032;-68
2022/05/29 02:07:49;;;;;;;2.80;2.10;;;;;;;13.60;100.00;90518.19;5072748;28;20513;-68
2022/05/29 02:10:18;;;;;;;2.17;1.92;;;;;;;13.70;100.00;90514.28;5072699;28;20028;-68
2022/05/29 02:13:02;;;;;;;2.30;1.80;;;;;;;13.73;100.00;90509.06;5072549;28;20028;-68
2022/05/29 02:15:41;;;;;;;;;;;;;;;13.68;100.00;90516.50;5072999;28;20021;-68
2022/05/29 02:18:12;;;;;;;1.63;1.50;;;;;;;13.76;100.00;90515.63;5072481;28;19909;-68
2022/05/29 02:20:43;;;;;;;1.85;1.52;;;;;;;13.73;100.00;90508.28;5072513;28;20033;-68
2022/05/29 02:23:16;;;;;;;5.75;1.80;;;;;;;13.71;100.00;90508.59;5072303;28;20029;-68
2022/05/29 02:25:42;;;;;;;3.03;1.75;;;;;;;13.51;100.00;90504.16;5072315;28;20025;-68
2022/05/29 02:28:38;;;;;;;5.40;1.63;;;;;;;13.42;100.00;90501.63;5072243;28;20032;-68
2022/05/29 02:31:28;;;;;;;1.50;1.33;;;;;;;13.44;100.00;90495.97;5072204;28;20391;-68
2022/05/29 02:34:09;;;;;;;1.85;1.65;;;;;;;13.27;100.00;90480.94;5071933;28;20024;-68
2022/05/29 02:36:59;;;;;;;5.05;2.50;;;;;;;13.28;100.00;90493.19;5072320;28;20033;-68
2022/05/29 02:39:58;;;;;;;3.00;1.75;;;;;;;13.23;100.00;90495.28;5071885;28;20107;-69
2022/05/29 02:42:32;;;;;;;3.65;2.13;;;;;;;13.10;100.00;90502.50;5071829;28;20020;-68
2022/05/29 02:45:18;;;;;;;2.88;1.60;;;;;;;12.89;100.00;90492.69;5071885;28;20540;-68
2022/05/29 02:47:57;;;;;;;4.00;2.53;;;;;;;12.83;100.00;90488.69;5071808;28;20126;-69
2022/05/29 02:50:31;;;;;;;8.25;2.83;;;;;;;12.81;100.00;90485.56;5071783;28;20478;-69
2022/05/29 02:53:01;;;;;;;2.65;1.90;;;;;;;12.79;100.00;90477.13;5071685;28;20036;-69
2022/05/29 02:55:27;;;;;;;5.88;2.28;;;;;;;12.67;100.00;90466.44;5053773;28;20028;-68
2022/05/29 02:57:57;;;;;;;4.43;2.25;;;;;;;12.67;100.00;90479.00;5071560;28;20106;-69
2022/05/29 03:00:23;;;;;;;2.38;1.92;;;;;;;12.59;100.00;90465.41;5071707;28;20056;-68
2022/05/29 03:03:15;;;;;;;3.80;2.70;;;;;;;12.61;100.00;90486.41;5071524;28;20480;-68
2022/05/29 03:05:59;;;;;;;5.35;2.38;;;;;;;12.56;100.00;90483.97;5071548;28;20024;-68
2022/05/29 03:09:04;;;;;;;6.40;1.98;;;;;;;12.58;100.00;90487.09;5071563;28;20390;-69
2022/05/29 03:11:37;;;;;;;3.22;2.05;;;;;;;12.55;100.00;90487.75;5029564;28;20047;-69
2022/05/29 03:14:10;;;;;;;3.33;2.05;;;;;;;12.56;100.00;90483.97;5071199;28;20032;-68
2022/05/29 03:16:51;;;;;;;3.45;2.15;;;;;;;12.57;100.00;90480.19;5071436;28;20021;-68
2022/05/29 03:19:26;;;;;;;4.45;2.00;;;;;;;12.62;100.00;90477.31;5071271;28;20039;-68
2022/05/29 03:22:00;;;;;;;6.47;2.63;;;;;;;12.66;100.00;90472.88;5071335;28;20354;-68
2022/05/29 03:24:44;;;;;;;2.40;2.03;;;;;;;12.75;100.00;90470.09;5071271;28;20025;-68
2022/05/29 03:27:31;;;;;;;8.60;3.00;;;;;;;12.85;100.00;90478.44;5071271;28;20041;-68
2022/05/29 03:30:19;;;;;;;3.50;2.47;;;;;;;12.80;100.00;90473.34;5053246;28;20028;-68
2022/05/29 03:32:49;;;;;;;5.35;2.30;;;;;;;12.92;100.00;90475.22;5071104;28;20473;-68
2022/05/29 03:35:28;;;;;;;5.22;3.13;;;;;;;13.04;100.00;90471.78;5071049;28;20063;-69
2022/05/29 03:37:55;;;;;;;6.43;2.42;;;;;;;13.13;100.00;90467.13;5071117;28;20185;-68
2022/05/29 03:40:21;;;;;;;5.32;3.10;;;;;;;13.12;100.00;90462.91;5071215;28;20028;-68
2022/05/29 03:42:47;;;;;;;3.78;2.75;;;;;;;13.11;100.00;90464.78;5053070;28;20020;-68
2022/05/29 03:45:13;;;;;;;4.78;3.33;;;;;;;13.08;100.00;90461.97;5071079;28;20501;-68
2022/05/29 03:47:39;;;;;;;3.45;2.50;;;;;;;13.24;100.00;90452.22;5053016;28;20056;-67
2022/05/29 03:50:09;;;;;;;6.22;3.45;;;;;;;13.24;100.00;90446.09;5070914;28;20029;-68
2022/05/29 03:52:34;;;;;;;6.03;2.72;;;;;;;13.29;100.00;90438.66;5070917;28;20029;-68
2022/05/29 03:55:00;;;;;;;4.95;4.10;;;;;;;13.25;100.00;90442.31;5070865;28;20501;-68
2022/05/29 03:57:27;;;;;;;4.10;2.88;;;;;;;13.16;100.00;90437.84;5070714;28;20499;-68
2022/05/29 03:59:52;;;;;;;3.70;2.78;;;;;;;13.14;100.00;90436.63;5070875;28;20487;-68
2022/05/29 04:02:18;;;;;;;4.05;2.75;;;;;;;13.22;100.00;90430.41;5070860;28;20028;-69
2022/05/29 04:04:44;;;;;;;3.97;2.30;;;;;;;13.32;100.00;90437.97;5070867;28;20433;-69
2022/05/29 04:07:09;;;;;;;5.70;3.22;;;;;;;13.33;100.00;90428.06;5070823;28;20039;-69
2022/05/29 04:12:19;;;;;;;4.70;3.35;;;;;;;13.70;100.00;90428.75;5070503;28;20509;-69
2022/05/29 04:14:45;;;;;;;3.08;2.78;;;;;;;13.82;100.00;90420.69;5070728;28;20028;-69
2022/05/29 04:17:13;;;;;;;2.13;1.92;;;;;;;13.82;100.00;90426.03;5070758;28;20048;-69
2022/05/29 04:19:39;;;;;;;3.80;2.80;;;;;;;13.91;100.00;90418.66;5070759;28;20029;-69
2022/05/29 04:22:16;;;;;;;3.20;2.63;;;;;;;14.07;100.00;90408.78;5071612;28;20464;-68
2022/05/29 04:24:42;;;;;;;4.63;2.50;;;;;;;14.36;100.00;90412.97;5074699;28;20052;-68
2022/05/29 04:27:09;;;;;;;3.70;3.25;;;;;;;14.79;100.00;90410.59;5074651;28;20614;-68
2022/05/29 04:29:35;;;;;;;3.42;2.65;;;;;;;14.98;100.00;90403.41;5074659;28;20029;-68
2022/05/29 04:34:44;;;;;;;2.85;2.03;;;;;;;15.35;100.00;90397.72;5074465;28;20036;-68
2022/05/29 04:37:10;;;;;;;5.72;2.90;;;;;;;15.56;100.00;90392.81;5074401;28;20025;-68
2022/05/29 04:39:36;;;;;;;4.05;2.25;;;;;;;15.74;100.00;90387.84;5074388;28;20024;-68
2022/05/29 04:42:05;;;;;;;3.42;2.17;;;;;;;15.99;100.00;90380.28;5074223;28;20033;-68
2022/05/29 04:44:31;;;;;;;4.82;2.42;;;;;;;15.91;100.00;90380.50;5074263;28;20052;-68
2022/05/29 04:47:01;;;;;;;2.53;1.80;;;;;;;16.01;100.00;90380.72;5074199;28;20086;-68
2022/05/29 04:49:27;;;;;;;3.25;2.28;;;;;;;16.23;100.00;90381.88;5074200;28;20524;-68
2022/05/29 04:51:53;;;;;;;2.60;1.73;;;;;;;16.43;100.00;90372.69;5074149;28;20027;-68
2022/05/29 04:54:18;;;;;;;4.70;1.90;;;;;;;16.36;100.00;90374.44;5073928;28;20064;-69
2022/05/29 04:56:48;;;;;;;1.98;1.77;;;;;;;16.34;100.00;90382.84;5074335;28;20020;-69
2022/05/29 04:59:13;;;;;;;1.50;1.40;;;;;;;16.39;100.00;90373.72;5073879;28;20051;-68
2022/05/29 05:01:39;;;;;;;5.65;2.20;;;;;;;16.40;100.00;90377.97;5073944;28;20111;-68
2022/05/29 05:04:04;;;;;;;4.97;2.00;;;;;;;16.40;100.00;90365.31;5073807;28;20032;-68
2022/05/29 05:06:30;;;;;;;4.10;2.10;;;;;;;16.61;100.00;90380.25;5073918;28;20035;-68
2022/05/29 05:08:56;;;;;;;4.55;2.20;;;;;;;16.70;100.00;90373.53;5073788;28;20343;-68
2022/05/29 05:11:21;;;;;;;2.83;1.83;;;;;;;16.86;100.00;90367.25;5073666;28;20085;-68
2022/05/29 05:13:47;;;;;;;3.47;1.92;;;;;;;16.62;100.00;90374.53;5073500;28;20055;-68
2022/05/29 05:16:12;;;;;;;2.45;1.90;;;;;;;16.73;100.00;90366.69;5073572;28;20378;-68
2022/05/29 05:18:38;;;;;;;2.53;2.22;;;;;;;16.95;100.00;90360.50;5073493;28;20024;-68
2022/05/29 05:21:05;;;;;;;1.85;1.65;;;;;;;17.17;100.00;90358.91;5073522;28;20020;-68
2022/05/29 05:23:31;;;;;;;3.65;1.95;;;;;;;17.50;100.00;90355.50;5073631;28;20418;-68
2022/05/29 05:25:57;;;;;;;2.75;1.88;;;;;;;17.79;100.00;90353.22;5073441;28;20025;-68
2022/05/29 05:28:22;;;;;;;1.80;1.70;;;;;;;18.39;100.00;90356.59;5073390;28;20024;-68
2022/05/29 05:30:48;;;;;;;2.47;2.10;;;;;;;18.91;100.00;90356.69;5073161;28;20111;-69
2022/05/29 05:33:14;;;;;;;5.25;2.88;;;;;;;18.95;100.00;90349.44;5072259;28;20062;-70
2022/05/29 05:35:40;;;;;;;2.05;1.85;;;;;;;19.41;100.00;90349.75;5072878;28;20429;-70
2022/05/29 05:38:06;;;;;;;2.70;1.90;;;;;;;20.84;100.00;90359.22;5055179;28;20067;-69
2022/05/29 05:40:33;;;;;;;3.13;2.15;;;;;;;23.29;85.06;90357.66;5073052;28;20056;-70
2022/05/29 05:42:59;;;;;;;5.60;1.60;;;;;;;23.88;71.02;90368.44;5073021;28;20033;-66
2022/05/29 05:45:24;;;;;;;2.60;1.55;;;;;;;25.64;61.34;90360.31;5063851;28;20033;-70
2022/05/29 05:47:50;;;;;;;1.33;1.20;;;;;;;26.26;55.83;90358.84;5052669;28;20029;-71
2022/05/29 05:50:15;;;;;;;4.88;1.27;;;;;;;26.27;58.94;90344.03;5052246;28;20029;-71
2022/05/29 05:52:41;;;;;;;1.60;1.10;;;;;;;26.40;54.28;90352.38;5052168;28;20036;-70
2022/05/29 05:55:10;;;;;;;3.83;1.45;;;;;;;28.05;53.39;90345.53;5052678;28;20139;-72
2022/05/29 05:57:36;;;;;;;2.60;1.77;;;;;;;28.86;49.67;90352.75;5052491;28;20048;-71
2022/05/29 06:00:05;;;;;;;6.63;2.28;;;;;;;27.72;49.93;90350.28;5052506;28;20032;-71
2022/05/29 06:02:30;;;;;;;2.35;1.40;;;;;;;27.82;49.44;90359.44;5052498;28;20025;-71
2022/05/29 06:04:55;;;;;;;3.15;1.85;;;;;;;29.03;48.33;90361.66;5052439;28;20021;-72
2022/05/29 06:07:21;;;;;;;23.35;12.07;;;;;;;30.46;45.60;90372.44;5052066;28;20028;-71
2022/05/29 06:09:47;;;;;;;4.68;1.85;;;;;;;30.18;44.91;90354.97;5052449;28;20056;-71
2022/05/29 06:12:12;;;;;;;4.38;1.70;;;;;;;29.02;47.45;90351.91;5052300;28;20496;-70
2022/05/29 06:14:38;;;;;;;2.42;1.65;;;;;;;24.73;53.91;90351.13;5052408;28;20021;-70
2022/05/29 06:17:04;;;;;;;1.45;1.20;;;;;;;23.88;57.68;90311.38;5052356;28;20409;-69
2022/05/29 06:19:30;;;;;;;2.15;1.48;;;;;;;24.18;56.97;90303.28;5052175;28;20490;-68
2022/05/29 06:21:55;;;;;;;2.53;1.60;;;;;;;22.07;61.31;90316.16;5051790;28;20044;-68
2022/05/29 06:24:20;;;;;;;2.97;1.63;;;;;;;20.59;71.11;90321.31;5052212;28;20025;-68
2022/05/29 06:26:46;;;;;;;6.53;1.73;;;;;;;20.22;77.21;90340.53;5052103;28;20024;-68
2022/05/29 06:29:11;;;;;;;5.22;2.15;;;;;;;19.66;85.94;90328.31;5052064;28;20029;-68
2022/05/29 06:31:37;;;;;;;1.70;1.60;;;;;;;22.37;74.17;90313.69;5050713;28;20021;-69
2022/05/29 06:34:02;;;;;;;6.40;1.73;;;;;;;23.97;63.35;90322.53;5051901;28;20115;-69
2022/05/29 06:36:28;;;;;;;2.92;1.70;;;;;;;24.14;61.39;90324.28;5051495;28;20056;-70
2022/05/29 06:38:55;;;;;;;1.60;1.40;;;;;;;24.36;61.74;90310.47;5051748;28;20033;-69
2022/05/29 06:41:24;;;;;;;5.82;2.58;;;;;;;25.22;59.61;90307.31;5051894;28;20029;-69
2022/05/29 06:43:51;;;;;;;3.28;1.83;;;;;;;27.12;54.97;90323.16;5051638;28;20047;-68
2022/05/29 06:46:17;;;;;;;6.47;1.98;;;;;;;25.28;56.07;90311.88;5051515;28;20036;-68
2022/05/29 06:48:42;;;;;;;2.72;1.50;;;;;;;25.32;56.08;90293.53;5051774;28;20033;-69
2022/05/29 06:51:10;;;;;;;4.32;1.48;;;;;;;26.13;54.38;90285.09;5051393;28;20388;-69
2022/05/29 06:53:36;;;;;;;4.15;1.60;;;;;;;25.14;57.03;90287.59;5050710;28;20479;-68
2022/05/29 06:56:01;;;;;;;5.63;1.60;;;;;;;25.75;57.19;90290.09;5051374;28;20060;-70
2022/05/29 06:58:27;;;;;;;2.60;1.80;;;;;;;26.80;52.59;90287.59;5051348;28;20498;-71
2022/05/29 07:07:10;;;;;;;3.67;1.92;;;;;;;25.83;54.83;90307.06;5068656;28;20040;-71
2022/05/29 07:09:17;;;;;;;3.78;1.40;;;;;;;24.67;58.33;90294.91;5047883;28;20033;-68
2022/05/29 07:11:45;;;;;;;3.88;1.48;;;;;;;25.98;56.36;90295.50;5059914;28;20960;-71
2022/05/29 07:14:10;;;;;;;2.70;1.50;;;;;;;27.31;53.73;90283.34;5071042;28;20133;-70
2022/05/29 07:16:36;;;;;;;3.30;1.77;;;;;;;29.05;49.82;90302.53;5070681;28;20767;-70
2022/05/29 07:19:01;;;;;;;1.10;0.90;;;;;;;25.71;53.76;90296.78;5070806;28;20037;-70
2022/05/29 07:21:33;;;;;;;1.38;1.25;;;;;;;24.30;56.80;90306.63;5069858;28;20109;-69
2022/05/29 07:23:59;;;;;;;1.30;1.20;;;;;;;25.24;56.87;90313.88;5070621;28;20467;-69
2022/05/29 07:26:25;;;;;;;1.15;1.08;;;;;;;25.12;56.46;90309.03;5070669;28;20055;-69
2022/05/29 07:28:51;;;;;;;2.55;1.27;;;;;;;26.74;53.27;90308.41;5070555;28;20056;-69
2022/05/29 07:31:17;;;;;;;3.05;1.58;;;;;;;28.21;50.31;90299.00;5070380;28;20056;-68
2022/05/29 07:33:42;;;;;;;2.95;1.20;;;;;;;27.72;50.46;90299.13;5069601;28;20435;-68
2022/05/29 07:36:13;;;;;;;3.72;1.40;;;;;;;26.99;51.66;90297.72;5070450;28;20044;-69
2022/05/29 07:38:41;;;;;;;2.35;0.90;;;;;;;27.50;52.76;90295.38;5070744;28;20032;-69
2022/05/29 07:43:52;;;;;;;2.00;1.33;;;;;;;26.94;52.81;90281.84;5069630;28;20174;-69
2022/05/29 07:46:18;;;;;;;1.20;1.10;;;;;;;29.90;48.37;90290.81;5070390;28;20170;-69
2022/05/29 07:48:43;;;;;;;3.78;1.73;;;;;;;27.33;50.62;90288.38;5069907;28;20028;-68
2022/05/29 07:51:10;;;;;;;2.63;1.98;;;;;;;27.26;51.99;90294.00;5069605;28;20016;-69
2022/05/29 07:53:37;;;;;;;1.20;1.10;;;;;;;28.68;49.13;90303.22;5068866;28;20044;-69
2022/05/29 07:56:03;;;;;;;2.15;1.45;;;;;;;28.48;49.58;90301.44;5069759;28;20109;-69
2022/05/29 07:58:28;;;;;;;2.22;1.15;;;;;;;28.83;48.41;90298.84;5069452;28;20078;-68
2022/05/29 08:00:54;;;;;;;4.25;2.15;;;;;;;32.34;43.33;90311.47;5070383;28;20468;-68
2022/05/29 08:03:22;;;;;;;2.25;1.58;;;;;;;31.55;44.31;90303.66;5069424;28;20040;-68
2022/05/29 08:05:48;;;;;;;1.42;1.30;;;;;;;30.29;43.70;90294.97;5070098;28;20029;-71
2022/05/29 08:08:13;;;;;;;6.65;2.08;;;;;;;27.98;48.50;90296.53;5070371;28;20050;-71
2022/05/29 08:10:41;;;;;;;1.30;1.00;;;;;;;28.55;48.42;90316.88;5069841;28;20047;-69
2022/05/29 08:13:07;;;;;;;2.58;1.33;;;;;;;28.31;51.74;90284.31;5069211;28;20036;-68
2022/05/29 08:15:32;;;;;;;3.63;1.23;;;;;;;28.53;47.40;90297.38;5070427;28;20107;-71
2022/05/29 08:17:58;;;;;;;2.47;1.52;;;;;;;28.99;48.87;90298.03;5070389;28;20108;-70
2022/05/29 08:20:24;;;;;;;1.75;1.27;;;;;;;28.58;47.52;90296.84;5069932;28;20036;-73
2022/05/29 08:22:49;;;;;;;1.08;0.98;;;;;;;27.82;49.19;90282.91;5069312;28;20032;-67
2022/05/29 08:30:48;;;;;;;2.92;1.23;;;;;;;29.81;46.69;90298.94;5070349;28;20071;-69
2022/05/29 08:33:20;;;;;;;2.95;2.17;;;;;;;28.98;46.49;90282.78;5069109;28;20119;-70
2022/05/29 08:35:49;;;;;;;2.80;1.85;;;;;;;27.41;48.42;90287.00;5069783;28;20028;-69
2022/05/29 08:38:17;;;;;;;2.92;2.08;;;;;;;28.48;49.37;90278.78;5069876;28;20029;-69
2022/05/29 08:40:44;;;;;;;2.88;2.17;;;;;;;27.90;49.72;90285.00;5069673;28;20027;-70
2022/05/29 08:43:17;;;;;;;1.75;1.33;;;;;;;27.27;50.40;90279.16;5068167;28;20118;-69
2022/05/29 08:45:46;;;;;;;2.78;1.35;;;;;;;28.68;47.79;90273.88;5049782;28;20040;-69
2022/05/29 08:48:11;;;;;;;3.20;1.30;;;;;;;29.48;47.74;90288.28;5070151;28;20036;-67
2022/05/29 08:50:48;;;;;;;1.77;1.23;;;;;;;30.13;44.80;90272.44;5069272;28;20553;-68
2022/05/29 08:53:30;;;;;;;2.17;1.98;;;;;;;29.87;45.47;90279.97;5068818;28;20028;-69
2022/05/29 08:56:03;;;;;;;4.40;1.50;;;;;;;30.01;46.65;90276.75;5070315;28;20024;-70
2022/05/29 08:58:39;;;;;;;1.23;1.13;;;;;;;28.88;47.26;90299.13;5069988;28;20094;-70
2022/05/29 09:01:07;;;;;;;1.88;1.30;;;;;;;27.80;48.80;90290.75;5069482;28;20113;-72
2022/05/29 09:03:51;;;;;;;3.65;1.40;;;;;;;25.98;52.05;90265.50;5069545;28;20021;-69
2022/05/29 09:06:31;;;;;;;2.40;1.35;;;;;;;27.41;50.18;90274.09;5069360;28;20056;-75
2022/05/29 09:09:01;;;;;;;2.60;1.70;;;;;;;27.72;49.17;90269.06;5075029;28;20575;-72
2022/05/29 09:11:31;;;;;;;4.88;2.08;;;;;;;27.05;51.69;90285.13;5073603;28;20024;-72
2022/05/29 09:14:07;;;;;;;3.08;1.80;;;;;;;27.08;51.28;90276.06;5072360;28;20081;-73
2022/05/29 09:16:51;;;;;;;1.50;1.40;;;;;;;27.66;51.69;90270.78;5073422;28;20154;-72
2022/05/29 09:19:35;;;;;;;2.05;1.30;;;;;;;26.09;54.27;90256.38;5071703;28;20036;-68
2022/05/29 09:22:26;;;;;;;3.25;2.20;;;;;;;26.07;53.21;90261.47;5072781;28;20403;-67
2022/05/29 09:25:04;;;;;;;1.55;1.45;;;;;;;23.69;58.35;90254.94;5073166;28;20028;-64
2022/05/29 09:27:31;;;;;;;1.77;1.60;;;;;;;24.26;58.42;90273.28;5073184;28;20055;-66
2022/05/29 09:29:57;;;;;;;2.92;1.50;;;;;;;24.87;58.79;90254.94;5072247;28;20032;-65
2022/05/29 09:32:27;;;;;;;2.42;1.90;;;;;;;25.60;55.68;90248.69;5072740;28;20043;-67
2022/05/29 09:35:14;;;;;;;2.05;1.50;;;;;;;26.71;55.57;90249.25;5072545;28;20078;-67
2022/05/29 09:38:00;;;;;;;2.40;1.55;;;;;;;25.40;57.50;90245.16;5072962;28;20031;-67
2022/05/29 09:41:06;;;;;;;2.90;1.77;;;;;;;26.06;58.20;90246.31;5071802;28;20040;-66
2022/05/29 09:43:32;;;;;;;4.22;1.95;;;;;;;26.15;56.94;90244.53;5012221;28;20047;-66
2022/05/29 09:46:18;;;;;;;1.95;1.60;;;;;;;25.34;59.25;90244.09;5072878;28;20418;-65
2022/05/29 09:51:39;;;;;;;2.30;2.10;;;;;;;25.38;58.98;90252.97;5052516;28;20150;-68
2022/05/29 09:54:08;;;;;;;1.98;1.85;;;;;;;24.55;64.17;90252.69;5052492;28;20110;-69
2022/05/29 09:56:35;;;;;;;1.77;1.63;;;;;;;27.86;55.84;90248.78;5052594;28;20029;-68
2022/05/29 09:59:19;;;;;;;1.90;1.75;;;;;;;26.82;56.20;90238.81;5055528;28;20045;-68
2022/05/29 10:01:49;;;;;;;1.67;1.58;;;;;;;26.04;56.42;90237.78;5052724;28;20047;-67
2022/05/29 10:04:41;;;;;;;5.30;3.05;;;;;;;25.07;60.02;90244.94;5052167;28;20087;-66
2022/05/29 10:07:17;;;;;;;4.68;2.20;;;;;;;27.37;56.96;90234.44;5052523;28;20067;-67
2022/05/29 10:09:57;;;;;;;3.35;1.98;;;;;;;26.72;55.60;90226.97;5061042;28;20600;-68
2022/05/29 10:12:52;;;;;;;3.40;1.73;;;;;;;26.50;55.14;90234.09;5054106;28;20028;-66
2022/05/29 10:15:27;;;;;;;2.60;1.80;;;;;;;26.45;57.36;90208.09;5071511;28;20045;-67
2022/05/29 10:17:54;;;;;;;4.25;1.70;;;;;;;27.49;54.47;90222.03;5072181;28;20115;-68
2022/05/29 10:20:35;;;;;;;2.50;1.42;;;;;;;25.42;57.91;90222.97;5070086;28;20029;-67
2022/05/29 10:23:05;;;;;;;2.58;2.00;;;;;;;25.48;59.41;90215.84;5054010;28;20043;-66
2022/05/29 10:25:34;;;;;;;1.77;1.67;;;;;;;26.75;56.15;90215.22;5071767;28;20032;-67
2022/05/29 10:28:10;;;;;;;2.15;1.95;;;;;;;25.89;57.86;90237.28;5071846;28;20028;-67
2022/05/29 10:30:48;;;;;;;1.95;1.58;;;;;;;26.23;56.59;90235.03;5070697;28;20028;-67
2022/05/29 10:33:25;;;;;;;2.38;1.88;;;;;;;25.76;57.34;90220.78;5071093;28;20028;-67
2022/05/29 10:35:55;;;;;;;4.03;1.98;;;;;;;25.02;59.64;90199.13;5071088;28;20040;-67
2022/05/29 10:38:22;;;;;;;3.17;2.08;;;;;;;27.33;57.98;90199.00;5071565;28;20438;-67
2022/05/29 10:40:50;;;;;;;6.40;2.05;;;;;;;26.44;56.03;90198.38;5052683;28;20452;-67
2022/05/29 10:43:46;;;;;;;3.05;1.92;;;;;;;27.93;55.24;90196.66;5071497;28;20032;-67
2022/05/29 10:46:19;;;;;;;3.95;2.50;;;;;;;28.81;54.49;90198.00;5071531;28;20687;-67
2022/05/29 10:49:07;;;;;;;2.95;2.30;;;;;;;26.84;55.84;90206.44;5070868;28;20024;-67
2022/05/29 10:52:00;;;;;;;2.95;2.65;;;;;;;26.49;56.87;90205.28;5051231;28;20119;-67
2022/05/29 10:54:53;;;;;;;5.93;2.45;;;;;;;26.25;59.26;90201.88;5035162;28;20458;-67
2022/05/29 10:57:25;;;;;;;5.47;2.92;;;;;;;25.57;60.20;90183.41;5071538;28;20031;-68
2022/05/29 11:00:20;;;;;;;6.57;2.53;;;;;;;25.69;60.96;90188.22;5070413;28;20045;-67
2022/05/29 11:03:21;;;;;;;4.25;2.75;;;;;;;25.84;59.38;90181.31;5071298;28;20046;-68
2022/05/29 11:06:01;;;;;;;12.70;4.82;;;;;;;25.72;61.76;90206.47;5071000;28;20035;-67
2022/05/29 11:08:46;;;;;;;4.25;3.17;;;;;;;25.45;62.81;90170.41;5058460;28;20065;-67
2022/05/29 11:11:45;;;;;;;5.22;2.47;;;;;;;26.17;62.26;90175.94;5064894;28;20452;-67
2022/05/29 11:14:34;;;;;;;3.35;2.40;;;;;;;26.35;61.31;90159.19;5063484;28;20031;-67
2022/05/29 11:17:43;;;;;;;7.93;3.10;;;;;;;26.82;61.02;90165.91;5069231;28;20044;-68
2022/05/29 11:20:17;;;;;;;3.50;2.67;;;;;;;26.11;61.79;90155.84;5060014;28;20487;-68
2022/05/29 11:23:21;;;;;;;4.25;2.85;;;;;;;26.27;62.37;90153.16;5063492;28;20112;-68
2022/05/29 11:26:15;;;;;;;7.85;3.10;;;;;;;25.84;62.57;90148.59;5069879;28;20486;-68
2022/05/29 11:28:43;;;;;;;4.55;2.80;;;;;;;24.74;68.48;90143.22;5068499;28;20457;-68
2022/05/29 11:31:11;;;;;;;3.25;2.22;;;;;;;24.66;69.78;90144.53;5069454;28;20525;-69
2022/05/29 11:34:02;;;;;;;2.80;2.60;;;;;;;24.97;74.02;90136.25;5069890;28;20052;-67
2022/05/29 11:36:55;;;;;;;6.00;3.03;;;;;;;25.17;69.18;90141.75;5062704;28;20028;-67
2022/05/29 11:39:34;;;;;;;3.27;2.80;;;;;;;24.87;70.91;90143.41;5063958;28;20455;-67
2022/05/29 11:42:06;;;;;;;4.68;2.88;;;;;;;24.35;73.66;90124.84;5050668;28;20029;-67
2022/05/29 11:44:34;;;;;;;4.22;2.30;;;;;;;23.46;80.57;90120.56;5050880;28;20521;-67
2022/05/29 11:51:16;;;;;;;8.82;4.03;;;;;;;23.43;84.40;90131.47;5060151;28;20418;-67
2022/05/29 11:53:28;;;;;;;2.60;2.40;;;;;;;24.01;78.29;90100.47;5030647;28;20040;-67
2022/05/29 11:55:57;;;;;;;6.07;3.90;;;;;;;24.16;78.78;90107.25;5061537;28;20040;-66
2022/05/29 11:58:42;;;;;;;6.10;3.40;;;;;;;25.26;73.76;90109.31;5062677;28;20044;-67
2022/05/29 12:01:23;;;;;;;3.10;2.38;;;;;;;24.38;74.42;90093.34;5066202;28;20069;-65
2022/05/29 12:04:05;;;;;;;7.05;3.42;;;;;;;23.55;83.80;90091.00;5051958;28;20024;-65
2022/05/29 12:06:34;;;;;;;4.35;3.55;;;;;;;24.72;76.47;90083.03;5059514;28;20024;-66
2022/05/29 12:09:03;;;;;;;6.78;4.25;;;;;;;25.46;71.89;90087.50;5069466;28;20041;-67
2022/05/29 12:11:33;;;;;;;5.40;4.25;;;;;;;25.32;73.33;90092.03;5050254;28;20417;-68
2022/05/29 12:14:05;;;;;;;5.55;4.57;;;;;;;25.54;71.76;90102.50;5061796;28;20068;-67
2022/05/29 12:16:34;;;;;;;6.43;4.72;;;;;;;24.82;74.31;90091.44;5049633;28;20051;-67
2022/05/29 12:19:07;;;;;;;6.40;4.30;;;;;;;25.63;77.33;90089.09;5060176;28;20489;-67
2022/05/29 12:21:37;;;;;;;;;;;;;;;27.31;65.12;90085.94;5057889;28;20021;-67